Time;durP1;ratioP1;P1;durP2;ratioP2;P2;SDS_P1;SDS_P2;PMS_P1;PMS_P2;Temp;Humidity;BMP_temperature;BMP_pressure;BME280_temperature;BME280_humidity;BME280_pressure;Samples;Min_cycle;Max_cycle;Signal;HPM_P1;HPM_P2
2023/08/25 00:01:10;;;;;;;8.95;3.20;;;28.60;74.30;;;;;;5065448;28;20078;-56
2023/08/25 00:03:36;;;;;;;15.13;3.65;;;28.50;74.60;;;;;;5066792;28;20028;-56
2023/08/25 00:06:02;;;;;;;9.15;3.00;;;28.50;74.80;;;;;;5066807;28;20029;-56
2023/08/25 00:08:28;;;;;;;11.02;3.72;;;28.50;74.80;;;;;;5064957;28;20059;-56
2023/08/25 00:10:53;;;;;;;10.20;3.40;;;28.50;74.90;;;;;;5066941;28;20028;-56
2023/08/25 00:13:20;;;;;;;12.40;3.88;;;28.40;75.00;;;;;;5063921;28;20040;-56
2023/08/25 00:15:45;;;;;;;12.32;3.13;;;28.40;75.10;;;;;;5065165;28;20100;-56
2023/08/25 00:18:11;;;;;;;9.93;3.50;;;28.40;75.40;;;;;;5064983;28;20040;-56
2023/08/25 00:20:36;;;;;;;10.68;3.55;;;28.30;75.50;;;;;;5059208;28;20029;-56
2023/08/25 00:23:03;;;;;;;16.08;3.63;;;28.40;75.70;;;;;;5045000;28;20041;-56
2023/08/25 00:25:29;;;;;;;12.80;4.07;;;28.30;75.80;;;;;;5047245;28;20022;-56
2023/08/25 00:27:55;;;;;;;7.35;2.92;;;28.30;75.70;;;;;;5045652;28;20363;-56
2023/08/25 00:30:20;;;;;;;8.52;3.60;;;28.30;75.80;;;;;;5045906;28;20038;-56
2023/08/25 00:32:46;;;;;;;8.95;3.40;;;28.30;75.90;;;;;;5063764;28;20044;-56
2023/08/25 00:35:11;;;;;;;9.85;3.40;;;28.30;76.00;;;;;;5064798;28;20040;-56
2023/08/25 00:37:37;;;;;;;8.48;3.22;;;28.20;75.90;;;;;;5047910;28;20460;-56
2023/08/25 00:40:03;;;;;;;9.27;3.42;;;28.20;76.00;;;;;;5065104;28;20052;-56
2023/08/25 00:42:28;;;;;;;11.38;3.40;;;28.20;76.10;;;;;;5064707;28;20389;-56
2023/08/25 00:44:54;;;;;;;9.60;3.40;;;28.20;76.00;;;;;;5066114;28;20159;-56
2023/08/25 00:47:19;;;;;;;7.85;3.30;;;28.20;76.00;;;;;;5064681;28;20020;-56
2023/08/25 00:49:45;;;;;;;11.15;3.53;;;28.20;76.00;;;;;;5045912;28;20029;-56
2023/08/25 00:52:11;;;;;;;9.30;3.35;;;28.10;76.00;;;;;;5029932;28;20029;-56
2023/08/25 00:54:37;;;;;;;12.52;3.92;;;28.10;76.00;;;;;;5031354;28;20043;-56
2023/08/25 00:57:03;;;;;;;7.72;3.88;;;28.10;76.00;;;;;;5064548;28;20025;-56
2023/08/25 00:59:32;;;;;;;7.47;4.00;;;28.10;76.10;;;;;;5035803;28;20029;-56
2023/08/25 01:01:57;;;;;;;9.88;3.33;;;28.10;76.10;;;;;;5044313;28;20022;-56
2023/08/25 01:04:23;;;;;;;10.35;3.88;;;28.10;76.10;;;;;;5044430;28;20056;-55
2023/08/25 01:06:48;;;;;;;6.63;3.55;;;28.10;76.20;;;;;;5044538;28;20440;-56
2023/08/25 01:09:14;;;;;;;12.07;4.32;;;28.10;76.20;;;;;;5048680;28;20044;-56
2023/08/25 01:12:00;;;;;;;8.57;4.68;;;28.00;76.10;;;;;;5030421;28;20055;-56
2023/08/25 01:14:30;;;;;;;;;;;28.00;76.10;;;;;;5064442;28;20029;-56
2023/08/25 01:17:26;;;;;;;13.98;5.38;;;28.00;76.10;;;;;;5065622;28;19944;-56
2023/08/25 01:20:01;;;;;;;9.40;4.65;;;28.00;76.00;;;;;;5064033;28;20053;-56
2023/08/25 01:22:35;;;;;;;12.70;4.60;;;28.00;75.90;;;;;;5063740;28;20021;-56
2023/08/25 01:25:20;;;;;;;7.40;3.65;;;28.00;76.70;;;;;;5065176;28;20029;-56
2023/08/25 01:27:47;;;;;;;8.63;3.67;;;28.00;76.20;;;;;;5063444;28;20044;-56
2023/08/25 01:30:14;;;;;;;10.55;4.00;;;28.00;77.00;;;;;;5061741;28;20055;-56
2023/08/25 01:32:40;;;;;;;9.43;3.88;;;28.00;76.20;;;;;;5059674;28;20063;-56
2023/08/25 01:35:06;;;;;;;7.97;3.58;;;28.00;76.20;;;;;;5045155;28;20028;-56
2023/08/25 01:37:32;;;;;;;7.68;3.38;;;28.00;76.30;;;;;;5043737;28;20029;-56
2023/08/25 01:40:04;;;;;;;6.65;3.53;;;28.00;76.40;;;;;;5057500;28;20370;-56
2023/08/25 01:42:30;;;;;;;7.15;3.25;;;28.00;76.50;;;;;;5047232;28;20025;-56
2023/08/25 01:44:55;;;;;;;7.65;3.50;;;27.90;76.40;;;;;;5063916;28;20086;-56
2023/08/25 01:47:22;;;;;;;7.53;3.50;;;27.90;76.40;;;;;;5025877;28;20036;-56
2023/08/25 01:49:48;;;;;;;8.70;3.80;;;27.90;76.40;;;;;;5043628;28;20043;-56
2023/08/25 01:52:14;;;;;;;6.85;3.67;;;27.90;76.50;;;;;;5043792;28;20116;-56
2023/08/25 01:54:39;;;;;;;10.48;3.45;;;27.90;76.60;;;;;;5043547;28;20030;-57
2023/08/25 01:57:05;;;;;;;8.93;3.42;;;27.90;76.70;;;;;;5043330;28;20030;-57
2023/08/25 01:59:30;;;;;;;6.70;3.40;;;27.80;76.70;;;;;;5060805;28;20468;-57
2023/08/25 02:01:56;;;;;;;6.80;3.45;;;27.80;76.70;;;;;;5066766;28;20037;-57
2023/08/25 02:04:21;;;;;;;9.50;3.50;;;27.80;76.80;;;;;;5067522;28;20032;-57
2023/08/25 02:06:47;;;;;;;9.88;3.63;;;27.80;76.80;;;;;;5049776;28;20027;-57
2023/08/25 02:09:14;;;;;;;9.25;4.05;;;27.80;76.90;;;;;;5068875;28;20038;-57
2023/08/25 02:11:39;;;;;;;10.10;3.95;;;27.80;77.00;;;;;;5067567;28;20085;-57
2023/08/25 02:14:05;;;;;;;11.13;4.57;;;27.80;77.10;;;;;;5068706;28;20362;-57
2023/08/25 02:16:31;;;;;;;6.60;3.97;;;27.70;77.10;;;;;;5067168;28;20401;-57
2023/08/25 02:18:57;;;;;;;8.80;4.53;;;27.70;77.20;;;;;;5050217;28;20037;-57
2023/08/25 02:21:22;;;;;;;9.32;5.07;;;27.70;77.50;;;;;;5056599;28;20445;-57
2023/08/25 02:23:48;;;;;;;7.82;4.63;;;27.60;77.40;;;;;;5048435;28;20029;-57
2023/08/25 02:26:13;;;;;;;9.57;4.70;;;27.70;77.30;;;;;;5047336;28;20140;-57
2023/08/25 02:28:40;;;;;;;9.88;5.05;;;27.60;77.30;;;;;;5046399;28;20030;-57
2023/08/25 02:31:05;;;;;;;7.68;4.43;;;27.60;77.30;;;;;;5029584;28;20030;-56
2023/08/25 02:33:31;;;;;;;5.60;4.07;;;27.60;77.40;;;;;;5047645;28;20085;-57
2023/08/25 02:35:56;;;;;;;7.55;3.92;;;27.60;77.60;;;;;;5046849;28;20055;-57
2023/08/25 02:38:22;;;;;;;8.95;4.25;;;27.60;77.60;;;;;;5046689;28;20037;-56
2023/08/25 02:40:48;;;;;;;9.25;4.82;;;27.60;77.60;;;;;;5046597;28;20040;-57
2023/08/25 02:43:13;;;;;;;7.85;4.00;;;27.60;77.70;;;;;;5013624;28;20055;-56
2023/08/25 02:45:41;;;;;;;7.63;4.28;;;27.50;77.70;;;;;;5046884;28;20137;-56
2023/08/25 02:48:07;;;;;;;12.05;4.47;;;27.50;77.70;;;;;;5046736;28;20061;-57
2023/08/25 02:50:33;;;;;;;5.90;3.60;;;27.50;77.80;;;;;;5048104;28;20025;-57
2023/08/25 02:52:58;;;;;;;10.40;4.13;;;27.50;77.90;;;;;;5046674;28;20034;-57
2023/08/25 02:55:24;;;;;;;10.63;4.55;;;27.50;78.00;;;;;;5048081;28;20052;-57
2023/08/25 02:57:50;;;;;;;11.15;4.28;;;27.40;78.10;;;;;;5029929;28;20082;-57
2023/08/25 03:00:16;;;;;;;10.32;4.57;;;27.40;78.20;;;;;;5047482;28;20032;-57
2023/08/25 03:02:42;;;;;;;7.38;4.50;;;27.40;78.20;;;;;;5060954;28;20025;-57
2023/08/25 03:05:09;;;;;;;9.52;4.68;;;27.40;78.20;;;;;;5065969;28;20087;-57
2023/08/25 03:07:34;;;;;;;12.23;4.45;;;27.40;78.30;;;;;;5066183;28;20088;-56
2023/08/25 03:10:00;;;;;;;7.68;3.97;;;27.40;78.30;;;;;;5048626;28;20048;-56
2023/08/25 03:12:28;;;;;;;8.80;4.05;;;27.30;78.20;;;;;;5049717;28;20457;-57
2023/08/25 03:14:54;;;;;;;8.35;4.40;;;27.30;78.20;;;;;;5066131;28;20485;-57
2023/08/25 03:17:20;;;;;;;6.32;4.25;;;27.30;78.20;;;;;;5067527;28;20025;-57
2023/08/25 03:19:45;;;;;;;7.55;3.80;;;27.30;78.10;;;;;;5064262;28;20044;-57
2023/08/25 03:22:11;;;;;;;7.03;4.20;;;27.30;78.10;;;;;;5066389;28;20033;-57
2023/08/25 03:24:36;;;;;;;5.32;3.78;;;27.30;78.00;;;;;;5049448;28;20021;-57
2023/08/25 03:27:02;;;;;;;8.10;4.22;;;27.30;77.90;;;;;;5067208;28;20098;-56
2023/08/25 03:29:28;;;;;;;9.13;3.88;;;27.30;77.80;;;;;;5052707;28;20033;-56
2023/08/25 03:31:53;;;;;;;6.97;4.25;;;27.30;77.80;;;;;;5046205;28;20488;-56
2023/08/25 03:34:19;;;;;;;9.80;4.68;;;27.30;77.90;;;;;;5045741;28;20057;-56
2023/08/25 03:36:45;;;;;;;8.65;3.97;;;27.30;77.90;;;;;;5045723;28;20033;-56
2023/08/25 03:39:12;;;;;;;8.48;3.95;;;27.30;78.40;;;;;;5033452;28;20351;-57
2023/08/25 03:41:37;;;;;;;20.70;6.07;;;27.30;77.70;;;;;;5066605;28;20029;-56
2023/08/25 03:44:03;;;;;;;64.70;9.63;;;27.30;77.70;;;;;;5069387;28;20500;-56
2023/08/25 03:46:28;;;;;;;40.38;7.95;;;27.30;77.70;;;;;;5065792;28;20412;-56
2023/08/25 03:48:54;;;;;;;50.95;9.45;;;27.20;77.70;;;;;;5064776;28;20036;-57
2023/08/25 03:51:19;;;;;;;29.38;7.03;;;27.20;77.70;;;;;;5066971;28;20356;-56
2023/08/25 03:53:45;;;;;;;19.98;6.20;;;27.20;77.80;;;;;;5065376;28;20044;-56
2023/08/25 03:56:11;;;;;;;24.33;5.90;;;27.20;77.70;;;;;;5066731;28;20089;-57
2023/08/25 03:58:36;;;;;;;39.83;6.93;;;27.20;77.70;;;;;;5063352;28;20393;-56
2023/08/25 04:01:03;;;;;;;29.48;6.53;;;27.20;77.60;;;;;;5065807;28;20048;-56
2023/08/25 04:03:28;;;;;;;21.40;5.65;;;27.10;77.40;;;;;;5066661;28;20040;-57
2023/08/25 04:05:54;;;;;;;31.75;6.95;;;27.10;77.40;;;;;;5064962;28;20021;-56
2023/08/25 04:08:19;;;;;;;36.70;6.30;;;27.10;77.40;;;;;;5063889;28;20029;-59
2023/08/25 04:10:47;;;;;;;36.25;6.97;;;27.10;77.40;;;;;;5048178;28;20192;-56
2023/08/25 04:13:12;;;;;;;34.75;7.40;;;27.10;77.40;;;;;;5041569;28;20131;-56
2023/08/25 04:15:38;;;;;;;57.08;8.18;;;27.00;77.20;;;;;;5044313;28;20051;-57
2023/08/25 04:18:05;;;;;;;144.75;13.35;;;27.10;77.40;;;;;;5055794;28;20094;-56
2023/08/25 04:20:30;;;;;;;102.85;12.95;;;27.10;77.40;;;;;;5065065;28;20021;-56
2023/08/25 04:22:56;;;;;;;92.35;11.00;;;27.10;77.50;;;;;;5050244;28;20095;-57
2023/08/25 04:25:22;;;;;;;57.83;8.85;;;27.00;77.40;;;;;;5044311;28;20037;-57
2023/08/25 04:27:47;;;;;;;72.65;8.95;;;27.00;77.30;;;;;;5063256;28;20063;-56
2023/08/25 04:30:13;;;;;;;69.25;10.25;;;27.00;77.30;;;;;;5045109;28;20085;-56
2023/08/25 04:32:39;;;;;;;43.80;8.38;;;27.00;77.30;;;;;;5044142;28;20026;-57
2023/08/25 04:35:05;;;;;;;69.00;9.02;;;27.00;77.20;;;;;;5026218;28;20056;-56
2023/08/25 04:37:31;;;;;;;46.88;9.00;;;27.00;77.40;;;;;;5043959;28;20430;-56
2023/08/25 04:39:56;;;;;;;50.67;9.80;;;27.00;77.50;;;;;;5043627;28;20052;-57
2023/08/25 04:42:22;;;;;;;58.95;10.10;;;27.00;77.60;;;;;;5024479;28;20022;-57
2023/08/25 04:44:48;;;;;;;43.75;8.02;;;27.00;77.70;;;;;;5028134;28;20037;-56
2023/08/25 04:47:15;;;;;;;48.97;9.32;;;26.90;77.80;;;;;;5064297;28;20033;-56
2023/08/25 04:49:43;;;;;;;55.58;9.95;;;26.90;77.90;;;;;;5064154;28;20025;-56
2023/08/25 04:52:08;;;;;;;50.90;10.13;;;26.90;78.00;;;;;;5065452;28;20079;-56
2023/08/25 04:54:34;;;;;;;63.72;10.95;;;26.90;78.10;;;;;;5064083;28;20036;-57
2023/08/25 04:56:59;;;;;;;56.17;9.05;;;26.80;78.40;;;;;;5062184;28;20461;-57
2023/08/25 04:59:25;;;;;;;70.35;10.38;;;26.80;78.50;;;;;;5064388;28;20462;-57
2023/08/25 05:01:50;;;;;;;79.70;13.77;;;26.80;78.40;;;;;;5065222;28;20481;-57
2023/08/25 05:04:16;;;;;;;62.90;11.52;;;26.80;78.60;;;;;;5058816;28;20029;-55
2023/08/25 05:06:41;;;;;;;48.42;10.30;;;26.80;78.70;;;;;;5045205;28;20028;-57
2023/08/25 05:09:07;;;;;;;56.70;9.35;;;26.80;78.90;;;;;;5053342;28;20025;-57
2023/08/25 05:11:34;;;;;;;40.67;9.38;;;26.70;78.90;;;;;;5065230;28;20235;-57
2023/08/25 05:14:00;;;;;;;49.35;10.70;;;26.70;79.00;;;;;;5065221;28;20036;-57
2023/08/25 05:16:25;;;;;;;41.22;10.23;;;26.70;79.10;;;;;;5062252;28;20113;-57
2023/08/25 05:18:51;;;;;;;47.78;9.85;;;26.70;79.10;;;;;;5047645;28;20045;-57
2023/08/25 05:21:16;;;;;;;51.85;10.70;;;26.70;79.20;;;;;;5042580;28;20442;-57
2023/08/25 05:23:42;;;;;;;73.55;11.55;;;26.70;79.90;;;;;;5026376;28;20052;-56
2023/08/25 05:26:08;;;;;;;37.08;9.68;;;26.70;79.20;;;;;;5043743;28;20032;-57
2023/08/25 05:28:33;;;;;;;41.70;9.82;;;26.70;79.40;;;;;;5043369;28;20064;-57
2023/08/25 05:30:59;;;;;;;37.63;8.48;;;26.70;79.50;;;;;;5043584;28;20052;-57
2023/08/25 05:33:24;;;;;;;36.58;8.65;;;26.70;79.60;;;;;;5043456;28;20029;-56
2023/08/25 05:36:02;;;;;;;40.33;8.55;;;26.70;79.60;;;;;;5043859;28;20116;-57
2023/08/25 05:38:28;;;;;;;35.70;8.75;;;26.70;79.70;;;;;;5043271;28;20059;-56
2023/08/25 05:40:55;;;;;;;42.50;8.60;;;26.70;79.90;;;;;;5043753;28;20592;-57
2023/08/25 05:43:21;;;;;;;33.63;8.52;;;26.70;79.80;;;;;;5043732;28;20018;-57
2023/08/25 05:45:46;;;;;;;32.38;6.85;;;26.70;80.00;;;;;;5044862;28;20087;-57
2023/08/25 05:48:12;;;;;;;33.45;7.63;;;26.70;80.90;;;;;;5044733;28;20022;-56
2023/08/25 05:50:37;;;;;;;28.65;6.50;;;26.60;81.20;;;;;;5044851;28;20462;-57
2023/08/25 05:53:03;;;;;;;26.95;6.65;;;26.60;81.50;;;;;;5044616;28;20573;-57
2023/08/25 05:55:30;;;;;;;21.17;5.55;;;26.50;81.70;;;;;;5048328;28;20381;-57
2023/08/25 05:57:55;;;;;;;21.90;4.90;;;26.50;82.80;;;;;;5063845;28;20103;-56
2023/08/25 06:00:21;;;;;;;17.23;4.78;;;26.40;82.90;;;;;;5063379;28;20029;-57
2023/08/25 06:02:46;;;;;;;15.90;4.60;;;26.40;83.40;;;;;;5046363;28;20029;-57
2023/08/25 06:05:12;;;;;;;17.38;4.55;;;26.40;84.30;;;;;;5063611;28;20033;-57
2023/08/25 06:07:38;;;;;;;19.52;4.60;;;26.30;84.50;;;;;;5064462;28;20028;-56
2023/08/25 06:10:04;;;;;;;18.33;4.65;;;26.30;84.60;;;;;;5041108;28;20030;-57
2023/08/25 06:12:29;;;;;;;13.43;5.28;;;26.30;84.60;;;;;;5041492;28;20053;-57
2023/08/25 06:14:55;;;;;;;26.48;6.05;;;26.30;84.80;;;;;;5042825;28;20040;-57
2023/08/25 06:17:20;;;;;;;23.48;5.25;;;26.30;85.10;;;;;;5041336;28;20113;-57
2023/08/25 06:19:46;;;;;;;12.85;4.10;;;26.20;85.50;;;;;;5038883;28;20029;-56
2023/08/25 06:22:11;;;;;;;14.45;4.55;;;26.30;85.60;;;;;;5042270;28;20030;-56
2023/08/25 06:24:37;;;;;;;13.73;4.47;;;26.20;85.70;;;;;;5041884;28;20032;-57
2023/08/25 06:27:03;;;;;;;15.40;4.00;;;26.20;86.50;;;;;;5041955;28;20056;-56
2023/08/25 06:29:29;;;;;;;12.30;4.57;;;26.20;86.50;;;;;;5040984;28;20470;-57
2023/08/25 06:31:56;;;;;;;15.48;4.40;;;26.20;87.60;;;;;;5040677;28;20108;-56
2023/08/25 06:34:21;;;;;;;23.15;5.20;;;26.20;87.00;;;;;;5044152;28;20055;-57
2023/08/25 06:36:47;;;;;;;19.52;4.25;;;26.20;87.30;;;;;;5042696;28;20061;-57
2023/08/25 06:39:12;;;;;;;25.80;5.28;;;26.20;87.50;;;;;;5026273;28;20038;-57
2023/08/25 06:41:38;;;;;;;26.73;4.90;;;26.10;87.90;;;;;;5042020;28;20030;-56
2023/08/25 06:44:04;;;;;;;30.30;5.50;;;26.10;88.00;;;;;;5042113;28;20032;-57
2023/08/25 06:46:29;;;;;;;27.13;5.72;;;26.10;88.40;;;;;;5041722;28;20048;-57
2023/08/25 06:49:08;;;;;;;34.70;5.95;;;26.00;88.50;;;;;;5044380;28;20026;-57
2023/08/25 06:51:35;;;;;;;24.40;5.18;;;25.90;88.70;;;;;;5045887;28;20034;-57
2023/08/25 06:54:01;;;;;;;28.15;5.00;;;25.90;89.10;;;;;;5047283;28;20033;-57
2023/08/25 06:56:27;;;;;;;31.38;5.32;;;25.80;89.10;;;;;;5045888;28;20051;-56
2023/08/25 06:58:52;;;;;;;51.08;7.55;;;25.80;89.20;;;;;;5051440;28;20426;-57
2023/08/25 07:01:18;;;;;;;51.03;8.45;;;25.80;89.30;;;;;;5044951;28;20025;-56
2023/08/25 07:03:43;;;;;;;50.05;7.13;;;25.90;89.40;;;;;;5067574;28;20482;-56
2023/08/25 07:06:10;;;;;;;65.65;8.38;;;25.80;89.30;;;;;;5057878;28;20029;-57
2023/08/25 07:08:36;;;;;;;113.80;13.00;;;25.80;89.50;;;;;;5059969;28;20029;-56
2023/08/25 07:11:03;;;;;;;77.53;9.88;;;25.90;90.00;;;;;;5067508;28;20040;-56
2023/08/25 07:13:31;;;;;;;46.95;6.55;;;25.80;89.40;;;;;;5067468;28;20044;-56
2023/08/25 07:15:56;;;;;;;77.90;10.60;;;25.80;89.30;;;;;;5065336;28;20045;-56
2023/08/25 07:18:24;;;;;;;58.58;8.98;;;25.80;89.40;;;;;;5045396;28;20168;-56
2023/08/25 07:20:50;;;;;;;73.90;10.57;;;25.80;89.30;;;;;;5045929;28;20120;-56
2023/08/25 07:23:17;;;;;;;115.20;12.43;;;25.80;89.30;;;;;;5045158;28;20481;-56
2023/08/25 07:25:45;;;;;;;117.40;14.75;;;25.90;89.30;;;;;;5043434;28;20045;-57
2023/08/25 07:28:11;;;;;;;49.60;8.00;;;25.90;89.40;;;;;;5037550;28;20060;-57
2023/08/25 07:30:37;;;;;;;88.35;11.77;;;25.90;88.90;;;;;;5043554;28;20029;-55
2023/08/25 07:33:05;;;;;;;46.58;8.07;;;25.90;88.60;;;;;;5043365;28;20434;-56
2023/08/25 07:35:37;;;;;;;41.85;6.82;;;25.90;88.70;;;;;;5030085;28;20042;-57
2023/08/25 07:38:03;;;;;;;48.95;6.63;;;26.00;89.30;;;;;;5042293;28;20049;-56
2023/08/25 07:40:29;;;;;;;60.15;8.60;;;25.90;89.30;;;;;;5045213;28;20026;-57
2023/08/25 07:42:59;;;;;;;46.97;7.28;;;25.90;89.10;;;;;;5032897;28;20072;-56
2023/08/25 07:45:25;;;;;;;36.63;5.50;;;25.90;88.60;;;;;;5043352;28;20450;-57
2023/08/25 07:47:50;;;;;;;46.80;6.85;;;25.90;88.00;;;;;;5044028;28;20086;-56
2023/08/25 07:50:16;;;;;;;32.88;6.63;;;25.90;87.50;;;;;;5041020;28;20057;-56
2023/08/25 07:52:41;;;;;;;40.05;6.28;;;26.00;86.90;;;;;;5045575;28;20089;-56
2023/08/25 07:55:08;;;;;;;35.85;5.95;;;26.00;86.60;;;;;;5043815;28;20025;-56
2023/08/25 07:57:34;;;;;;;28.08;5.97;;;26.00;86.30;;;;;;5046591;28;20033;-56
2023/08/25 08:00:00;;;;;;;36.45;6.20;;;26.10;86.00;;;;;;5058769;28;20026;-56
2023/08/25 08:02:26;;;;;;;35.53;8.07;;;26.10;86.10;;;;;;5042952;28;20090;-57
2023/08/25 08:04:51;;;;;;;36.13;6.47;;;26.10;86.00;;;;;;5042318;28;20037;-56
2023/08/25 08:07:17;;;;;;;25.30;5.13;;;26.10;85.70;;;;;;5054260;28;20029;-57
2023/08/25 08:09:43;;;;;;;44.85;6.82;;;26.10;85.50;;;;;;5039020;28;20056;-55
2023/08/25 08:12:08;;;;;;;31.80;5.72;;;26.10;85.00;;;;;;5040049;28;20037;-56
2023/08/25 08:14:36;;;;;;;39.47;7.10;;;26.10;84.80;;;;;;5041836;28;20033;-56
2023/08/25 08:17:03;;;;;;;40.97;6.70;;;26.10;84.60;;;;;;5046200;28;20056;-56
2023/08/25 08:19:28;;;;;;;41.72;7.10;;;26.10;84.60;;;;;;5037959;28;20040;-56
2023/08/25 08:21:54;;;;;;;23.65;6.07;;;26.10;84.70;;;;;;5044438;28;20120;-57
2023/08/25 08:24:21;;;;;;;22.70;6.35;;;26.10;84.20;;;;;;5039067;28;20408;-56
2023/08/25 08:26:47;;;;;;;41.50;7.65;;;26.20;84.10;;;;;;5041880;28;20030;-56
2023/08/25 08:29:12;;;;;;;39.25;8.65;;;26.20;84.00;;;;;;5046884;28;20025;-57
2023/08/25 08:31:38;;;;;;;67.68;9.05;;;26.20;84.10;;;;;;5046177;28;20025;-56
2023/08/25 08:34:03;;;;;;;54.40;9.25;;;26.20;84.10;;;;;;5023846;28;20048;-56
2023/08/25 08:36:29;;;;;;;38.53;8.98;;;26.30;83.90;;;;;;5046084;28;20037;-56
2023/08/25 08:38:55;;;;;;;59.80;9.10;;;26.20;83.70;;;;;;5065573;28;20163;-56
2023/08/25 08:41:20;;;;;;;47.65;8.63;;;26.30;83.60;;;;;;5053545;28;20060;-57
2023/08/25 08:43:46;;;;;;;72.20;10.95;;;26.30;84.00;;;;;;5047327;28;20040;-56
2023/08/25 08:46:14;;;;;;;63.47;9.98;;;26.40;83.50;;;;;;5046101;28;20501;-56
2023/08/25 08:48:43;;;;;;;51.92;8.75;;;26.40;83.60;;;;;;5027967;28;20036;-56
2023/08/25 08:51:13;;;;;;;46.03;7.97;;;26.40;83.50;;;;;;5052039;28;20365;-56
2023/08/25 08:53:38;;;;;;;41.67;8.40;;;26.40;83.40;;;;;;5056452;28;20033;-56
2023/08/25 08:56:04;;;;;;;69.82;10.45;;;26.40;83.40;;;;;;5067371;28;20044;-56
2023/08/25 08:58:29;;;;;;;48.60;8.35;;;26.50;83.70;;;;;;5049266;28;20038;-56
2023/08/25 09:00:56;;;;;;;38.13;8.35;;;26.50;83.30;;;;;;5063137;28;20040;-56
2023/08/25 09:03:22;;;;;;;51.22;7.82;;;26.50;84.20;;;;;;5046269;28;20021;-56
2023/08/25 09:05:47;;;;;;;57.05;9.02;;;26.50;83.50;;;;;;5030561;28;20032;-56
2023/08/25 09:08:13;;;;;;;69.65;9.43;;;26.50;83.40;;;;;;5047586;28;20128;-56
2023/08/25 09:10:38;;;;;;;62.42;8.48;;;26.60;83.60;;;;;;5021756;28;20049;-56
2023/08/25 09:13:04;;;;;;;50.72;9.35;;;26.60;83.30;;;;;;5041153;28;20121;-56
2023/08/25 09:15:31;;;;;;;62.40;10.13;;;26.60;83.30;;;;;;5043022;28;20036;-57
2023/08/25 09:18:04;;;;;;;75.95;12.13;;;26.60;83.70;;;;;;5047442;28;20092;-56
2023/08/25 09:20:34;;;;;;;55.92;9.40;;;26.60;83.50;;;;;;5057452;28;20481;-56
2023/08/25 09:23:00;;;;;;;75.28;12.20;;;26.60;82.80;;;;;;5064548;28;20033;-56
2023/08/25 09:25:26;;;;;;;79.35;11.90;;;26.70;82.80;;;;;;5051891;28;20034;-56
2023/08/25 09:28:03;;;;;;;105.65;12.63;;;26.70;82.80;;;;;;5051759;28;20027;-56
2023/08/25 09:30:42;;;;;;;62.53;10.70;;;26.80;82.60;;;;;;5048945;28;20033;-56
2023/08/25 09:33:13;;;;;;;62.72;10.07;;;26.80;82.00;;;;;;5058234;28;20394;-56
2023/08/25 09:35:39;;;;;;;75.57;10.95;;;26.80;81.90;;;;;;5042617;28;20112;-56
2023/08/25 09:38:05;;;;;;;72.53;11.45;;;26.90;81.80;;;;;;5031081;28;20033;-57
2023/08/25 09:40:31;;;;;;;73.88;11.10;;;26.90;81.50;;;;;;5017341;28;20041;-57
2023/08/25 09:43:18;;;;;;;68.05;10.13;;;26.90;81.40;;;;;;5023216;28;20045;-56
2023/08/25 09:45:44;;;;;;;78.32;12.10;;;26.90;81.30;;;;;;5029527;28;20017;-57
2023/08/25 09:48:13;;;;;;;68.55;11.23;;;26.90;81.40;;;;;;5037833;28;20040;-56
2023/08/25 09:50:42;;;;;;;68.13;10.25;;;26.90;81.00;;;;;;5047318;28;20021;-56
2023/08/25 09:53:09;;;;;;;57.92;8.45;;;26.90;80.90;;;;;;5056214;28;20037;-56
2023/08/25 09:55:36;;;;;;;62.55;9.13;;;26.90;80.90;;;;;;5062211;28;20045;-57
2023/08/25 09:58:06;;;;;;;68.28;9.30;;;27.00;80.80;;;;;;5022933;28;20515;-56
2023/08/25 10:00:33;;;;;;;52.22;8.27;;;27.00;80.80;;;;;;5030691;28;20034;-56
2023/08/25 10:02:59;;;;;;;48.92;8.10;;;26.90;80.40;;;;;;5037462;28;20034;-56
2023/08/25 10:05:24;;;;;;;41.45;8.13;;;27.00;80.60;;;;;;5032068;28;20033;-54
2023/08/25 10:07:51;;;;;;;63.72;9.23;;;27.00;80.60;;;;;;5037294;28;20089;-56
2023/08/25 10:10:16;;;;;;;63.55;9.38;;;27.00;80.50;;;;;;5007486;28;20029;-56
2023/08/25 10:12:42;;;;;;;76.18;10.05;;;27.00;80.60;;;;;;5039208;28;20052;-56
2023/08/25 10:15:09;;;;;;;107.05;13.43;;;27.00;80.60;;;;;;5037984;28;20037;-56
2023/08/25 10:17:35;;;;;;;63.47;9.52;;;27.00;80.50;;;;;;5039046;28;20148;-56
2023/08/25 10:20:04;;;;;;;45.97;7.72;;;27.10;80.50;;;;;;5023078;28;20045;-56
2023/08/25 10:22:30;;;;;;;56.40;8.63;;;27.10;80.60;;;;;;5019743;28;20034;-56
2023/08/25 10:24:59;;;;;;;57.97;7.93;;;27.10;80.40;;;;;;5041226;28;20076;-56
2023/08/25 10:27:25;;;;;;;38.22;7.40;;;27.20;80.40;;;;;;5049987;28;20025;-56
2023/08/25 10:29:51;;;;;;;68.20;8.38;;;27.10;80.30;;;;;;5057084;28;20036;-56
2023/08/25 10:32:16;;;;;;;73.05;9.98;;;27.20;80.40;;;;;;5048804;28;20021;-55
2023/08/25 10:34:43;;;;;;;60.25;8.35;;;27.20;80.40;;;;;;5056652;28;20037;-56
2023/08/25 10:37:12;;;;;;;50.75;8.63;;;27.20;80.30;;;;;;5032683;28;20108;-56
2023/08/25 10:39:44;;;;;;;48.97;7.57;;;27.20;80.10;;;;;;5044322;28;20053;-56
2023/08/25 10:42:10;;;;;;;44.20;7.30;;;27.20;80.10;;;;;;5050290;28;20026;-56
2023/08/25 10:44:40;;;;;;;48.38;8.73;;;27.20;80.00;;;;;;5045952;28;20029;-57
2023/08/25 10:47:05;;;;;;;57.88;9.88;;;27.20;80.40;;;;;;5062160;28;20021;-56
2023/08/25 10:49:40;;;;;;;82.38;10.05;;;27.30;80.60;;;;;;5064584;28;20054;-56
2023/08/25 10:52:16;;;;;;;51.27;8.33;;;27.30;80.70;;;;;;5048696;28;20333;-57
2023/08/25 10:54:42;;;;;;;41.55;7.22;;;27.30;80.50;;;;;;5045499;28;20349;-56
2023/08/25 10:57:20;;;;;;;65.40;8.73;;;27.30;80.60;;;;;;5062619;28;20058;-56
2023/08/25 10:59:50;;;;;;;44.78;8.13;;;27.30;80.80;;;;;;5049214;28;20029;-56
2023/08/25 11:02:38;;;;;;;38.67;6.97;;;27.30;80.90;;;;;;5053270;28;20192;-56
2023/08/25 11:05:26;;;;;;;30.08;5.90;;;27.30;80.60;;;;;;5062505;28;20034;-56
2023/08/25 11:07:53;;;;;;;38.42;7.25;;;27.30;80.40;;;;;;5051176;28;20056;-56
2023/08/25 11:10:21;;;;;;;50.78;7.90;;;27.30;80.40;;;;;;5051563;28;20090;-56
2023/08/25 11:12:46;;;;;;;51.28;8.55;;;27.30;80.40;;;;;;5055723;28;20055;-55
2023/08/25 11:15:12;;;;;;;40.42;7.30;;;27.40;80.60;;;;;;5064266;28;20028;-56
2023/08/25 11:17:38;;;;;;;47.38;9.13;;;27.40;80.20;;;;;;5061492;28;20052;-56
2023/08/25 11:20:04;;;;;;;57.20;9.57;;;27.40;80.50;;;;;;5064288;28;20043;-56
2023/08/25 11:22:29;;;;;;;27.60;6.43;;;27.50;80.50;;;;;;5052716;28;20029;-56
2023/08/25 11:24:55;;;;;;;38.90;7.82;;;27.50;80.10;;;;;;5053163;28;20029;-56
2023/08/25 11:27:22;;;;;;;70.35;10.13;;;27.50;80.00;;;;;;5046095;28;20208;-56
2023/08/25 11:29:49;;;;;;;34.85;7.20;;;27.50;80.00;;;;;;5037601;28;20493;-56
2023/08/25 11:32:15;;;;;;;48.70;7.50;;;27.50;79.90;;;;;;5048223;28;20041;-56
2023/08/25 11:34:48;;;;;;;30.50;6.57;;;27.60;79.80;;;;;;5063277;28;20086;-56
2023/08/25 11:37:14;;;;;;;47.45;8.38;;;27.60;79.60;;;;;;5048117;28;20033;-56
2023/08/25 11:39:42;;;;;;;43.50;7.80;;;27.60;79.50;;;;;;5066427;28;20028;-56
2023/08/25 11:42:08;;;;;;;23.63;6.10;;;27.60;79.30;;;;;;5014189;28;20030;-56
2023/08/25 11:44:34;;;;;;;27.25;5.75;;;27.70;79.20;;;;;;5029015;28;20061;-56
2023/08/25 11:46:59;;;;;;;30.20;6.07;;;27.70;79.10;;;;;;5043628;28;20116;-56
2023/08/25 11:49:26;;;;;;;21.35;5.70;;;27.70;79.10;;;;;;5028068;28;20395;-56
2023/08/25 11:51:52;;;;;;;29.70;5.88;;;27.70;79.20;;;;;;5045630;28;20093;-56
2023/08/25 11:54:18;;;;;;;34.53;6.38;;;27.80;79.30;;;;;;5044609;28;20075;-56
2023/08/25 11:56:53;;;;;;;29.40;6.70;;;27.90;79.40;;;;;;5062732;28;20036;-56
2023/08/25 11:59:19;;;;;;;56.20;7.65;;;27.80;79.20;;;;;;5064950;28;20033;-56
2023/08/25 12:01:49;;;;;;;31.70;6.78;;;27.80;79.20;;;;;;5031893;28;20437;-56
2023/08/25 12:04:25;;;;;;;36.97;7.38;;;27.90;79.00;;;;;;5054453;28;20034;-56
2023/08/25 12:06:55;;;;;;;30.73;6.18;;;28.00;78.50;;;;;;5045448;28;20048;-56
2023/08/25 12:09:22;;;;;;;44.58;8.65;;;27.90;78.10;;;;;;5045104;28;20060;-56
2023/08/25 12:11:47;;;;;;;45.83;8.85;;;28.00;78.10;;;;;;5028316;28;20457;-56
2023/08/25 12:14:29;;;;;;;48.63;8.10;;;28.10;78.10;;;;;;5049658;28;20040;-56
2023/08/25 12:16:56;;;;;;;52.50;8.23;;;28.10;78.00;;;;;;5062744;28;20041;-56
2023/08/25 12:19:24;;;;;;;68.85;10.40;;;28.10;77.80;;;;;;5065964;28;20045;-56
2023/08/25 12:21:54;;;;;;;44.28;8.65;;;28.20;78.50;;;;;;5064323;28;20469;-56
2023/08/25 12:24:19;;;;;;;47.47;9.18;;;28.20;77.40;;;;;;5063365;28;20029;-56
2023/08/25 12:26:45;;;;;;;63.30;9.68;;;28.20;77.10;;;;;;5062423;28;20028;-56
2023/08/25 12:29:11;;;;;;;78.75;9.98;;;28.30;77.00;;;;;;5045345;28;20340;-56
2023/08/25 12:31:36;;;;;;;54.60;9.48;;;28.30;76.90;;;;;;5056712;28;20063;-56
2023/08/25 12:34:03;;;;;;;76.78;10.23;;;28.40;76.40;;;;;;5052013;28;20076;-56
2023/08/25 12:36:28;;;;;;;60.15;8.90;;;28.50;75.90;;;;;;5043267;28;20489;-56